• Join FlightAware (Why Join?)
  • Login
  • US Flag 
11:37PM EDT


 

Airport Tracker/Info


-or-


 

Live Flight TrackerFlight Track Log ✈ UAL5855 ✈ 15-Jul-2013 ✈ KIAD - KTYS

Flight Track Log - Related Links

Times and Time Zones

All times are in EDT time to prevent confusion due to time zone crossing. See the UAL5855 flight status page for this flight to view local times or setup timezone preferences in your user account.

Time Position Orientation Groundspeed Altitude Reporting Facility
EDT Latitude Longitude Course Direction KTS MPH feet Rate Location/Type
01:05PM 38.9333 -77.5333 234° Southwest 187 215 2,500  Level Potomac TRACON
01:06PM 38.8833 -77.6000 226° Southwest 249 287 4,000 1,740 Climbing Potomac TRACON
01:07PM 38.6495 -77.6335 197° South  Level FlightAware Approximate
01:07PM 38.8167 -77.6167 191° South 277 319 6,100  Level Potomac TRACON
01:08PM 38.5493 -77.6797 210° Southwest  Level FlightAware Approximate
01:08PM 38.7333 -77.6333 189° South 280 322 8,500  Level Potomac TRACON
01:09PM 38.4762 -77.7691 230° Southwest  Level FlightAware Approximate
01:09PM 38.6667 -77.6500 191° South 280 322 10,400  Level Potomac TRACON
01:10PM 38.4123 -77.8785 234° Southwest  Level FlightAware Approximate
01:10PM 38.5833 -77.6833 197° South 305 351 11,500  Level Potomac TRACON
01:11PM 38.4894 -77.7642 214° Southwest 321 369 12,700 960 Climbing Washington Center
01:12PM 38.4331 -77.8686 235° Southwest 332 382 13,800 1,080 Climbing Washington Center
01:13PM 38.3792 -77.9728 237° Southwest 353 406 14,900 1,080 Climbing Washington Center
01:14PM 38.3206 -78.0819 236° Southwest 366 421 16,000 1,020 Climbing Washington Center
01:15PM 38.2575 -78.2017 236° Southwest 376 433 17,000 900 Climbing Washington Center
01:16PM 38.2031 -78.3053 236° Southwest 376 433 17,900 660 Climbing Washington Center
01:17PM 38.1442 -78.4194 237° Southwest 383 441 18,300 600 Climbing Washington Center
01:18PM 38.0975 -78.5417 244° Southwest 389 448 19,200 840 Climbing Washington Center
01:19PM 38.0525 -78.6717 246° West 396 456 20,000 900 Climbing Washington Center
01:20PM 38.0025 -78.8200 247° West 411 473 21,000 840 Climbing Washington Center
01:21PM 37.9594 -78.9497 247° West 411 473 21,800 780 Climbing Washington Center
01:22PM 37.9117 -79.0844 246° West 416 479 22,700 900 Climbing Washington Center
01:23PM 37.8539 -79.2108 240° Southwest 416 479 23,700 1,020 Climbing Washington Center
01:24PM 37.8006 -79.3186 238° Southwest 416 479 24,800 1,020 Climbing Washington Center
01:25PM 37.7403 -79.4417 238° Southwest 416 479 25,800 1,020 Climbing Washington Center
01:26PM 37.6758 -79.5617 236° Southwest 416 479 26,900 1,080 Climbing Washington Center
01:27PM 37.6086 -79.6972 238° Southwest 421 484 28,000 540 Climbing Washington Center
01:28PM 37.5506 -79.8119 237° Southwest 429 494 28,000  Level Washington Center
01:29PM 37.4831 -79.9469 238° Southwest 441 507 28,000  Level Washington Center
01:31PM 37.3297 -80.2389 237° Southwest 457 526 28,000  Level Atlanta Center
01:32PM 37.2589 -80.3778 237° Southwest 469 540 28,000  Level Atlanta Center
01:33PM 37.1800 -80.5325 237° Southwest 481 554 28,000  Level Atlanta Center
01:34PM 37.1069 -80.6711 237° Southwest 481 554 28,000  Level Atlanta Center
01:35PM 37.0461 -80.8169 242° Southwest 481 554 28,000  Level Atlanta Center
01:36PM 36.9978 -80.9592 247° West 481 554 28,000  Level Atlanta Center
01:37PM 36.9450 -81.1092 246° West 481 554 28,000  Level Atlanta Center
01:38PM 36.8881 -81.2644 245° Southwest 481 554 28,000 -180 Level Atlanta Center
01:39PM 36.8331 -81.4142 245° Southwest 486 559 27,700 -780 Descending Atlanta Center
01:40PM 36.7819 -81.5636 247° West 480 552 26,500 -1,200 Descending Atlanta Center
01:41PM 36.7286 -81.7156 246° West 480 552 25,300 -1,140 Descending Atlanta Center
01:42PM 36.6731 -81.8672 245° Southwest 485 558 24,300 -1,200 Descending Atlanta Center
01:43PM 36.6192 -82.0108 245° Southwest 480 552 23,000 -1,440 Descending Atlanta Center
01:44PM 36.5631 -82.1597 245° Southwest 474 545 21,500 -1,440 Descending Atlanta Center
01:45PM 36.5089 -82.3031 245° Southwest 466 536 20,200 -780 Descending Atlanta Center
01:46PM 36.4586 -82.4383 245° Southwest 451 519 20,000 -120 Descending Atlanta Center
01:47PM 36.4061 -82.5786 245° Southwest 446 513 20,000 -600 Level Atlanta Center
01:48PM 36.3556 -82.7161 245° Southwest 441 507 18,800 -1,380 Descending Atlanta Center
01:49PM 36.3050 -82.8536 246° West 441 507 17,300 -1,680 Descending Atlanta Center
01:50PM 36.2519 -82.9933 245° Southwest 424 488 15,500 -1,680 Descending Atlanta Center
01:51PM 36.2028 -83.1175 244° Southwest 412 474 14,000 -1,500 Descending Atlanta Center
01:52PM 36.1558 -83.2417 245° Southwest 401 461 12,500 -1,500 Descending Atlanta Center
01:53PM 36.1106 -83.3603 245° Southwest 395 455 11,100 -1,080 Descending Atlanta Center
01:54PM 36.0694 -83.4711 245° Southwest 377 434 10,400 -1,140 Descending Atlanta Center
01:55PM 36.0178 -83.5536 232° Southwest 329 379 8,900 -1,380 Descending Atlanta Center
01:56PM 35.9700 -83.6231 230° Southwest 298 343 7,700 -960 Descending Atlanta Center
01:57PM 35.9181 -83.6900 226° Southwest 278 320 7,000 -300 Descending Atlanta Center
01:58PM 35.8681 -83.7569 227° Southwest 268 308 7,100  Climbing Atlanta Center
01:59PM 35.8203 -83.8261 230° Southwest 268 308 7,000 -720 Descending Atlanta Center
02:00PM 35.7725 -83.8928 229° Southwest 263 303 5,700 -1,320 Descending Atlanta Center
02:01PM 35.7244 -83.9544 226° Southwest 263 303 4,400 -1,320 Descending Atlanta Center